Time;durP1;ratioP1;P1;durP2;ratioP2;P2;SDS_P1;SDS_P2;PMS_P1;PMS_P2;Temp;Humidity;BMP_temperature;BMP_pressure;BME280_temperature;BME280_humidity;BME280_pressure;Samples;Min_cycle;Max_cycle;Signal;HPM_P1;HPM_P2
2022/12/06 03:46:34;;;;;;;8.07;2.85;;;1.30;99.90;;;;;;5706815;23;93928;-68
2022/12/06 03:49:07;;;;;;;6.70;2.97;;;1.30;99.90;;;;;;4800279;29;92323;-70
2022/12/06 03:51:35;;;;;;;9.75;3.30;;;1.30;99.90;;;;;;4804277;29;92474;-68
2022/12/06 03:54:05;;;;;;;6.90;2.70;;;1.30;99.90;;;;;;4806573;29;91420;-70
2022/12/06 03:56:35;;;;;;;7.03;2.47;;;1.30;99.90;;;;;;4803638;29;92066;-71
2022/12/06 03:59:02;;;;;;;4.40;2.08;;;1.20;99.90;;;;;;4816426;29;93132;-70
2022/12/06 04:01:28;;;;;;;7.32;2.45;;;1.20;99.90;;;;;;4796097;29;93673;-70
2022/12/06 04:03:53;;;;;;;9.20;3.67;;;1.10;99.90;;;;;;4802830;29;92070;-70
2022/12/06 04:06:19;;;;;;;14.15;5.50;;;1.10;99.90;;;;;;4822138;29;91955;-70
2022/12/06 04:08:45;;;;;;;12.15;5.25;;;1.00;99.90;;;;;;4801967;29;91994;-70
2022/12/06 04:11:10;;;;;;;6.57;2.83;;;1.00;99.90;;;;;;4819064;29;92448;-71
2022/12/06 04:13:36;;;;;;;6.32;2.40;;;1.00;99.90;;;;;;4822443;29;91701;-71
2022/12/06 04:16:02;;;;;;;7.80;2.55;;;1.00;99.90;;;;;;4811328;29;91204;-70
2022/12/06 04:18:28;;;;;;;6.32;2.83;;;1.00;99.90;;;;;;4784087;29;93455;-71
2022/12/06 04:23:48;;;;;;;6.05;2.50;;;1.00;99.90;;;;;;4810649;29;92412;-67
2022/12/06 04:26:19;;;;;;;5.43;2.42;;;1.00;99.90;;;;;;4820485;29;91613;-70
2022/12/06 04:39:44;;;;;;;4.78;1.75;;;0.80;99.90;;;;;;4819183;29;92019;-71
2022/12/06 04:44:54;;;;;;;5.38;2.53;;;0.80;99.90;;;;;;4815207;29;91231;-70
2022/12/06 04:47:19;;;;;;;6.80;2.67;;;0.70;99.90;;;;;;4798660;29;91493;-70
2022/12/06 04:49:45;;;;;;;6.63;2.75;;;0.70;99.90;;;;;;4820773;29;92828;-70
2022/12/06 04:52:11;;;;;;;9.23;2.80;;;0.70;99.90;;;;;;4805950;29;93230;-70
2022/12/06 04:54:38;;;;;;;5.72;2.60;;;0.70;99.90;;;;;;4804663;29;91926;-71
2022/12/06 04:57:09;;;;;;;8.52;3.30;;;0.70;99.90;;;;;;4802717;29;91315;-69
2022/12/06 04:59:38;;;;;;;9.55;4.05;;;0.70;99.90;;;;;;4817511;29;93270;-69
2022/12/06 05:02:04;;;;;;;10.10;3.58;;;0.70;99.90;;;;;;4797324;29;92929;-69
2022/12/06 05:04:31;;;;;;;10.43;2.97;;;0.70;99.90;;;;;;4806796;29;91280;-69
2022/12/06 05:06:57;;;;;;;8.48;3.00;;;0.70;99.90;;;;;;4806515;29;90700;-70
2022/12/06 05:09:22;;;;;;;7.07;3.33;;;0.80;99.90;;;;;;4795317;29;92693;-71
2022/12/06 05:11:48;;;;;;;8.23;3.65;;;0.80;99.90;;;;;;4806692;29;92036;-68
2022/12/06 05:14:14;;;;;;;7.55;3.22;;;0.80;99.90;;;;;;4791622;29;92680;-68
2022/12/06 05:16:39;;;;;;;8.63;2.75;;;0.70;99.90;;;;;;4802465;29;92629;-68
2022/12/06 05:19:05;;;;;;;6.55;2.78;;;0.70;99.90;;;;;;4787953;29;93984;-69
2022/12/06 05:21:31;;;;;;;3.47;1.23;;;0.70;99.90;;;;;;4796354;29;92414;-69
2022/12/06 05:23:57;;;;;;;5.00;1.73;;;0.80;99.90;;;;;;4796268;29;91601;-70
2022/12/06 05:26:25;;;;;;;3.97;1.25;;;0.80;99.90;;;;;;4800696;29;91560;-70
2022/12/06 05:28:52;;;;;;;5.05;0.60;;;0.90;99.90;;;;;;4794669;29;92469;-71
2022/12/06 05:31:19;;;;;;;1.63;0.30;;;1.10;99.90;;;;;;4797350;29;91798;-70
2022/12/06 05:33:45;;;;;;;1.35;0.20;;;1.30;99.90;;;;;;4808101;29;91790;-70
2022/12/06 05:36:17;;;;;;;1.67;0.25;;;1.50;99.60;;;;;;4799398;29;91885;-70
2022/12/06 05:38:44;;;;;;;1.50;0.30;;;1.80;98.50;;;;;;4797487;29;93125;-70
2022/12/06 05:41:10;;;;;;;1.98;0.28;;;1.90;97.40;;;;;;4796713;29;92829;-70
2022/12/06 05:43:35;;;;;;;1.20;0.15;;;2.10;96.70;;;;;;4803044;29;91986;-70
2022/12/06 05:46:01;;;;;;;1.23;0.40;;;2.20;96.20;;;;;;4803697;29;91615;-70
2022/12/06 05:48:27;;;;;;;2.03;0.20;;;2.30;95.60;;;;;;4798407;29;92817;-69
2022/12/06 05:50:53;;;;;;;1.92;0.20;;;2.40;95.20;;;;;;4792767;29;91760;-67
2022/12/06 05:53:19;;;;;;;1.50;0.30;;;2.40;94.80;;;;;;4800758;29;92121;-69
2022/12/06 05:55:45;;;;;;;1.20;0.17;;;2.50;94.60;;;;;;4796995;29;90777;-69
2022/12/06 05:58:11;;;;;;;1.63;0.20;;;2.50;94.30;;;;;;4800251;29;92527;-69
2022/12/06 06:00:36;;;;;;;2.20;0.20;;;2.60;94.00;;;;;;4794269;29;92063;-68
2022/12/06 06:03:02;;;;;;;0.90;0.10;;;2.60;93.80;;;;;;4796006;29;92827;-69
2022/12/06 06:05:29;;;;;;;1.02;0.10;;;2.60;93.60;;;;;;4802796;29;91798;-69
2022/12/06 06:07:55;;;;;;;1.17;0.30;;;2.60;93.30;;;;;;4804082;29;91729;-69
2022/12/06 06:10:22;;;;;;;2.25;0.20;;;2.70;93.30;;;;;;4796535;29;91437;-69
2022/12/06 06:12:47;;;;;;;1.65;0.30;;;2.60;93.50;;;;;;4801370;29;92023;-70
2022/12/06 06:15:16;;;;;;;2.35;0.30;;;2.60;93.50;;;;;;4795349;29;91915;-70
2022/12/06 06:17:42;;;;;;;1.13;0.20;;;2.50;93.10;;;;;;4792015;29;91805;-70
2022/12/06 06:20:10;;;;;;;2.42;0.32;;;2.50;92.80;;;;;;4793934;29;92023;-70
2022/12/06 06:22:38;;;;;;;1.70;0.40;;;2.50;93.40;;;;;;4792814;29;92152;-67
2022/12/06 06:25:04;;;;;;;2.40;0.20;;;2.50;93.10;;;;;;4801219;29;92051;-69
2022/12/06 06:27:38;;;;;;;1.90;0.40;;;2.50;93.40;;;;;;4799317;29;93475;-68
2022/12/06 06:30:07;;;;;;;1.67;0.22;;;2.50;93.30;;;;;;4796028;29;93332;-67
2022/12/06 06:32:33;;;;;;;1.40;0.30;;;2.50;93.40;;;;;;4793439;29;92142;-71
2022/12/06 06:34:59;;;;;;;3.00;0.40;;;2.50;93.30;;;;;;4795366;29;91589;-69
2022/12/06 06:37:24;;;;;;;1.33;0.25;;;2.50;93.20;;;;;;4800466;29;92354;-70
2022/12/06 06:39:50;;;;;;;2.38;0.30;;;2.60;92.90;;;;;;4795242;29;92557;-70
2022/12/06 06:42:16;;;;;;;1.67;0.30;;;2.60;92.90;;;;;;4806280;29;91480;-67
2022/12/06 06:44:43;;;;;;;2.00;0.30;;;2.70;92.90;;;;;;4802996;29;91453;-69
2022/12/06 06:47:08;;;;;;;2.00;0.50;;;2.70;92.70;;;;;;4809509;29;91910;-68
2022/12/06 06:49:34;;;;;;;5.28;0.63;;;2.80;92.80;;;;;;4802514;29;92075;-68
2022/12/06 06:52:00;;;;;;;2.85;0.40;;;2.80;92.80;;;;;;4802736;29;92759;-68
2022/12/06 06:54:26;;;;;;;2.65;0.40;;;2.80;92.60;;;;;;4802070;29;91776;-67
2022/12/06 06:56:55;;;;;;;3.22;0.40;;;2.90;92.80;;;;;;4801458;29;92377;-67
2022/12/06 06:59:21;;;;;;;5.43;0.35;;;2.90;92.40;;;;;;4801367;29;92126;-68
2022/12/06 07:01:47;;;;;;;2.63;0.40;;;3.00;91.90;;;;;;4801800;29;91785;-70
2022/12/06 07:04:13;;;;;;;1.95;0.28;;;3.10;91.90;;;;;;4796522;29;91653;-69
2022/12/06 07:06:38;;;;;;;1.63;0.40;;;3.10;91.70;;;;;;4798601;29;92575;-69
2022/12/06 07:09:04;;;;;;;2.10;0.30;;;3.20;91.80;;;;;;4799107;29;92079;-69
2022/12/06 07:11:30;;;;;;;2.45;0.40;;;3.30;91.60;;;;;;4796133;29;92057;-67
2022/12/06 07:13:55;;;;;;;4.00;0.98;;;3.30;90.90;;;;;;4801120;29;91361;-70
2022/12/06 07:16:21;;;;;;;3.53;0.93;;;3.30;91.10;;;;;;4799891;29;94576;-68
2022/12/06 07:18:47;;;;;;;3.88;1.17;;;3.30;91.50;;;;;;4807505;29;92387;-70
2022/12/06 07:21:15;;;;;;;4.47;0.98;;;3.30;91.80;;;;;;4802078;29;91413;-71
2022/12/06 07:23:41;;;;;;;3.53;0.95;;;3.30;91.80;;;;;;4796725;29;91983;-69
2022/12/06 07:26:10;;;;;;;5.80;1.33;;;3.30;91.80;;;;;;4797312;29;92251;-68
2022/12/06 07:28:38;;;;;;;4.95;1.23;;;3.40;91.80;;;;;;4794715;29;92026;-69
2022/12/06 07:31:24;;;;;;;9.68;1.67;;;3.40;91.70;;;;;;4798659;29;92249;-70
2022/12/06 07:33:52;;;;;;;1.48;0.20;;;4.10;91.00;;;;;;4798299;29;90776;-70
2022/12/06 07:36:18;;;;;;;2.58;0.32;;;5.40;84.60;;;;;;4797878;29;92450;-70
2022/12/06 07:38:51;;;;;;;2.83;0.40;;;6.60;79.90;;;;;;4797113;29;92163;-69
2022/12/06 07:46:48;;;;;;;1.80;0.40;;;7.90;70.80;;;;;;4798054;29;91423;-69
2022/12/06 07:49:15;;;;;;;2.72;0.22;;;7.50;71.40;;;;;;4803831;29;92072;-70
2022/12/06 07:51:42;;;;;;;1.95;0.25;;;7.50;71.70;;;;;;4801527;29;91739;-70
2022/12/06 07:54:07;;;;;;;4.05;0.20;;;7.00;71.80;;;;;;4799700;29;91830;-70
2022/12/06 07:56:33;;;;;;;3.42;0.20;;;6.40;73.20;;;;;;4798581;29;92825;-70
2022/12/06 07:59:00;;;;;;;2.15;0.10;;;6.00;73.60;;;;;;4794854;29;92454;-70
2022/12/06 08:01:25;;;;;;;1.95;0.30;;;5.60;73.70;;;;;;4799805;29;91651;-69
2022/12/06 08:03:52;;;;;;;1.00;0.20;;;5.30;74.80;;;;;;4799322;29;91434;-70
2022/12/06 08:06:18;;;;;;;1.08;0.20;;;5.00;76.90;;;;;;4796516;29;93390;-69
2022/12/06 08:08:43;;;;;;;1.83;0.17;;;5.00;78.00;;;;;;4801192;29;92259;-70
2022/12/06 08:11:09;;;;;;;1.38;0.20;;;5.20;77.20;;;;;;4803205;29;92004;-70
2022/12/06 08:13:36;;;;;;;2.47;0.20;;;5.50;77.50;;;;;;4800104;29;91809;-69
2022/12/06 08:16:07;;;;;;;2.35;0.17;;;6.10;75.10;;;;;;4799840;29;92559;-69
2022/12/06 08:18:32;;;;;;;1.80;0.20;;;6.60;72.80;;;;;;4798466;29;92183;-69
2022/12/06 08:20:58;;;;;;;1.48;0.30;;;7.00;71.20;;;;;;4801030;29;91959;-69
2022/12/06 08:23:24;;;;;;;2.42;0.13;;;7.80;69.30;;;;;;4802294;29;91337;-70
2022/12/06 08:26:12;;;;;;;3.08;0.25;;;8.90;68.10;;;;;;4802977;29;91862;-69
2022/12/06 08:28:38;;;;;;;1.17;0.20;;;10.10;62.40;;;;;;4801379;29;92156;-70
2022/12/06 08:31:11;;;;;;;1.48;0.20;;;10.80;60.00;;;;;;4800746;29;92956;-71
2022/12/06 08:33:36;;;;;;;1.75;0.20;;;10.70;59.60;;;;;;4801026;29;92282;-69
2022/12/06 08:36:19;;;;;;;2.03;0.40;;;10.50;59.80;;;;;;4801053;29;92467;-70
2022/12/06 08:38:45;;;;;;;1.33;0.20;;;10.10;60.50;;;;;;4798561;29;92252;-69
2022/12/06 08:43:58;;;;;;;2.05;0.30;;;9.20;62.60;;;;;;4797622;29;91394;-69
2022/12/06 08:46:24;;;;;;;2.60;0.20;;;8.70;64.60;;;;;;4795200;29;91947;-69
2022/12/06 08:48:50;;;;;;;2.90;0.25;;;8.40;64.10;;;;;;4798324;29;92356;-69
2022/12/06 08:51:16;;;;;;;1.67;0.22;;;8.10;65.00;;;;;;4799543;29;91750;-69
2022/12/06 08:53:42;;;;;;;1.02;0.20;;;7.90;65.10;;;;;;4799528;29;91358;-69
2022/12/06 08:56:08;;;;;;;1.35;0.20;;;7.80;66.20;;;;;;4800378;29;92766;-69
2022/12/06 08:58:34;;;;;;;1.98;0.20;;;7.80;65.60;;;;;;4801759;29;93066;-69
2022/12/06 09:01:00;;;;;;;2.63;0.30;;;7.80;65.60;;;;;;4799549;29;92350;-69
2022/12/06 09:03:26;;;;;;;2.13;0.40;;;7.80;66.20;;;;;;4802913;29;91387;-70
2022/12/06 09:05:51;;;;;;;4.43;1.13;;;7.90;66.40;;;;;;4797160;29;92566;-69
2022/12/06 09:08:17;;;;;;;2.80;0.90;;;8.00;67.20;;;;;;4800782;29;92389;-69
2022/12/06 09:10:43;;;;;;;2.92;0.70;;;8.30;67.10;;;;;;4799088;29;91381;-70
2022/12/06 09:13:09;;;;;;;2.95;0.30;;;8.60;65.80;;;;;;4799906;29;91209;-69
2022/12/06 09:15:37;;;;;;;1.50;0.20;;;8.80;64.00;;;;;;4798105;29;93639;-69
2022/12/06 09:18:03;;;;;;;3.28;0.28;;;8.90;61.70;;;;;;4798864;29;92152;-69
2022/12/06 09:20:28;;;;;;;0.93;0.10;;;8.90;63.10;;;;;;4799986;29;92840;-69
2022/12/06 09:22:54;;;;;;;3.42;0.20;;;9.10;62.10;;;;;;4792455;29;93199;-69
2022/12/06 09:25:20;;;;;;;1.48;0.20;;;9.20;61.40;;;;;;4799369;29;92470;-69
2022/12/06 09:27:46;;;;;;;1.80;0.35;;;9.10;62.10;;;;;;4788755;29;93635;-69
2022/12/06 09:30:13;;;;;;;4.35;0.25;;;9.10;61.80;;;;;;4796709;29;91406;-70
2022/12/06 09:32:38;;;;;;;3.70;0.30;;;9.20;60.50;;;;;;4803673;29;91866;-70
2022/12/06 09:35:04;;;;;;;1.10;0.20;;;9.00;61.00;;;;;;4796025;29;92489;-69
2022/12/06 09:37:31;;;;;;;1.10;0.20;;;8.90;62.10;;;;;;4801445;29;91450;-70
2022/12/06 09:40:01;;;;;;;3.15;0.30;;;8.90;61.00;;;;;;4797429;29;92035;-70
2022/12/06 09:42:33;;;;;;;0.90;0.10;;;9.20;60.00;;;;;;4798592;29;91866;-70
2022/12/06 09:45:17;;;;;;;0.77;0.20;;;10.80;60.60;;;;;;4798336;29;93187;-70
2022/12/06 09:48:19;;;;;;;0.90;0.20;;;12.50;56.20;;;;;;4797385;29;92537;-70
2022/12/06 09:50:57;;;;;;;2.83;0.10;;;13.60;52.30;;;;;;4801836;29;91392;-70
2022/12/06 09:53:47;;;;;;;1.13;0.10;;;13.50;50.70;;;;;;4801797;29;92039;-70
2022/12/06 09:56:36;;;;;;;1.30;0.22;;;12.60;51.70;;;;;;4790071;29;92446;-69
2022/12/06 09:59:07;;;;;;;1.50;0.30;;;11.90;52.90;;;;;;4802470;29;92410;-70
2022/12/06 10:02:01;;;;;;;2.17;0.20;;;11.40;53.80;;;;;;4805003;29;91865;-69
2022/12/06 10:04:34;;;;;;;1.30;0.20;;;11.40;56.70;;;;;;4799402;29;90761;-70
2022/12/06 10:07:07;;;;;;;1.58;0.20;;;11.80;55.30;;;;;;4795512;29;92371;-70
2022/12/06 10:09:36;;;;;;;3.63;0.20;;;12.00;52.70;;;;;;4805139;29;91976;-70
2022/12/06 10:12:31;;;;;;;4.90;0.63;;;11.20;54.70;;;;;;4804925;29;93679;-70
2022/12/06 10:15:36;;;;;;;2.67;0.40;;;10.40;56.20;;;;;;4791875;29;91383;-69
2022/12/06 10:18:05;;;;;;;0.70;0.10;;;9.80;57.80;;;;;;4807300;29;92396;-70
2022/12/06 10:20:38;;;;;;;3.40;0.20;;;9.50;59.20;;;;;;4800661;29;91980;-69
2022/12/06 10:23:09;;;;;;;1.38;0.20;;;9.40;58.90;;;;;;4800262;29;91680;-70
2022/12/06 10:26:01;;;;;;;1.55;0.10;;;9.30;59.50;;;;;;4793044;29;91536;-69
2022/12/06 10:28:29;;;;;;;2.03;0.17;;;9.20;60.40;;;;;;4782311;29;92756;-69
2022/12/06 10:31:07;;;;;;;2.53;0.20;;;9.20;60.40;;;;;;4793593;29;91506;-69
2022/12/06 10:33:35;;;;;;;1.55;0.10;;;9.20;60.60;;;;;;4794053;29;91332;-69
2022/12/06 10:36:05;;;;;;;1.20;0.10;;;9.20;60.30;;;;;;4798906;29;91945;-69
2022/12/06 10:38:36;;;;;;;1.33;0.10;;;9.00;60.20;;;;;;4794342;29;92986;-70
2022/12/06 10:41:17;;;;;;;1.92;0.15;;;8.80;59.60;;;;;;4796277;29;93375;-68
2022/12/06 10:43:54;;;;;;;0.60;0.10;;;8.60;61.70;;;;;;4799128;29;92407;-69
2022/12/06 10:49:34;;;;;;;1.80;0.10;;;8.30;63.50;;;;;;4798229;29;92224;-69
2022/12/06 10:52:15;;;;;;;10.30;4.80;;;8.40;62.90;;;;;;4798137;29;92163;-69
2022/12/06 10:55:03;;;;;;;9.77;4.57;;;8.50;67.70;;;;;;4804413;29;91355;-70
2022/12/06 10:57:38;;;;;;;9.88;5.20;;;8.50;72.30;;;;;;4799114;29;90641;-69
2022/12/06 11:00:05;;;;;;;11.27;5.32;;;8.50;72.80;;;;;;4806299;29;92243;-70
2022/12/06 11:03:12;;;;;;;9.52;5.10;;;8.60;73.90;;;;;;4795683;29;95537;-69
2022/12/06 11:06:04;;;;;;;10.85;6.05;;;8.70;75.30;;;;;;4792727;29;92837;-69
2022/12/06 11:08:41;;;;;;;10.32;5.35;;;8.50;76.20;;;;;;4798285;29;91590;-69
2022/12/06 11:11:12;;;;;;;;;;;8.40;77.50;;;;;;4793604;29;93320;-69
2022/12/06 11:13:54;;;;;;;11.20;5.78;;;8.30;77.80;;;;;;4794402;29;92239;-69
2022/12/06 11:16:26;;;;;;;11.05;5.80;;;8.30;77.60;;;;;;4794034;29;92174;-69
2022/12/06 11:18:55;;;;;;;11.68;5.70;;;8.40;76.50;;;;;;4797707;29;91485;-69
2022/12/06 11:21:27;;;;;;;10.52;5.82;;;8.40;77.60;;;;;;4794272;29;92884;-69
2022/12/06 11:24:14;;;;;;;13.85;5.88;;;8.50;78.00;;;;;;4790256;29;92252;-69
2022/12/06 11:26:51;;;;;;;13.32;6.47;;;8.50;77.40;;;;;;4794747;29;92330;-70
2022/12/06 11:29:17;;;;;;;13.38;6.32;;;8.40;78.10;;;;;;4788746;29;93244;-69
2022/12/06 11:32:02;;;;;;;10.70;5.53;;;8.30;80.20;;;;;;4790899;29;93213;-69
2022/12/06 11:34:38;;;;;;;17.50;5.57;;;8.20;79.50;;;;;;4787985;29;92489;-69
2022/12/06 11:37:05;;;;;;;10.70;6.00;;;8.10;79.80;;;;;;4793884;29;92013;-69
2022/12/06 11:39:32;;;;;;;11.98;6.28;;;8.20;79.10;;;;;;4798138;29;91825;-69
2022/12/06 11:42:02;;;;;;;13.00;5.57;;;8.00;79.10;;;;;;4791746;29;92149;-69
2022/12/06 11:44:43;;;;;;;12.68;6.47;;;8.00;79.40;;;;;;4792487;29;91719;-69
2022/12/06 11:47:17;;;;;;;10.32;5.65;;;7.90;79.50;;;;;;4788432;29;92138;-69
2022/12/06 11:49:44;;;;;;;11.48;6.00;;;7.90;80.00;;;;;;4790737;29;91065;-70
2022/12/06 11:52:34;;;;;;;11.02;5.82;;;7.90;79.80;;;;;;4793850;29;92208;-70
2022/12/06 11:55:05;;;;;;;15.10;6.70;;;7.80;79.80;;;;;;4790061;29;92203;-69
2022/12/06 11:57:41;;;;;;;26.42;13.18;;;7.70;80.60;;;;;;4785583;29;93024;-68
2022/12/06 12:00:18;;;;;;;33.53;12.77;;;7.50;80.80;;;;;;4790646;29;92022;-69
2022/12/06 12:02:46;;;;;;;12.32;5.78;;;7.50;81.20;;;;;;4798121;29;92334;-69
2022/12/06 12:05:22;;;;;;;11.30;5.30;;;7.40;80.90;;;;;;4785798;29;93057;-69
2022/12/06 12:07:56;;;;;;;12.45;6.90;;;7.40;81.70;;;;;;4795228;29;92068;-69
2022/12/06 12:10:22;;;;;;;92.20;33.72;;;7.30;82.10;;;;;;4792872;29;92288;-69
2022/12/06 12:15:34;;;;;;;13.00;6.00;;;7.20;82.70;;;;;;4793849;29;91102;-69
2022/12/06 12:18:02;;;;;;;10.43;5.30;;;7.30;82.40;;;;;;4791168;29;92307;-69
2022/12/06 12:20:36;;;;;;;62.90;25.23;;;7.30;82.30;;;;;;4791597;29;92543;-69
2022/12/06 12:23:15;;;;;;;54.88;22.23;;;7.30;82.60;;;;;;4792748;29;93758;-69
2022/12/06 12:25:42;;;;;;;23.58;11.05;;;7.30;83.10;;;;;;4791494;29;93868;-69
2022/12/06 12:28:27;;;;;;;9.18;4.65;;;7.30;82.90;;;;;;4795628;29;92065;-69
2022/12/06 12:30:55;;;;;;;10.55;4.30;;;7.30;85.00;;;;;;4794102;29;92529;-69
2022/12/06 12:33:26;;;;;;;9.32;4.75;;;7.20;86.40;;;;;;4797748;29;92469;-69
2022/12/06 12:36:03;;;;;;;12.65;4.90;;;7.20;84.50;;;;;;4790553;29;92220;-69
2022/12/06 12:38:54;;;;;;;9.32;4.70;;;7.20;84.20;;;;;;4799523;29;91775;-70
2022/12/06 12:41:47;;;;;;;12.20;5.03;;;7.20;88.00;;;;;;4788988;29;91165;-70
2022/12/06 12:44:22;;;;;;;10.18;4.45;;;7.10;85.20;;;;;;4786060;29;91944;-69
2022/12/06 12:47:00;;;;;;;9.13;3.85;;;7.10;85.20;;;;;;4793996;29;92144;-70
2022/12/06 12:49:34;;;;;;;8.77;4.38;;;7.10;88.60;;;;;;4789237;29;92550;-69
2022/12/06 12:52:20;;;;;;;10.40;4.90;;;7.10;86.40;;;;;;4797094;29;91729;-69
2022/12/06 12:55:01;;;;;;;11.77;5.22;;;7.10;86.30;;;;;;4795486;29;92021;-69
2022/12/06 12:57:27;;;;;;;12.02;5.20;;;7.10;85.30;;;;;;4791661;29;91888;-69
2022/12/06 12:59:53;;;;;;;12.02;6.63;;;7.00;85.30;;;;;;4788998;29;92504;-69
2022/12/06 13:02:28;;;;;;;12.88;5.10;;;6.90;85.60;;;;;;4801478;29;91736;-69
2022/12/06 13:05:13;;;;;;;11.77;4.57;;;6.90;85.70;;;;;;4795508;29;92163;-69
2022/12/06 13:07:41;;;;;;;9.55;4.47;;;6.90;85.80;;;;;;4789363;29;91585;-69
2022/12/06 13:10:22;;;;;;;8.82;4.90;;;6.90;85.50;;;;;;4788818;29;91447;-70
2022/12/06 13:12:55;;;;;;;9.82;4.93;;;6.90;85.20;;;;;;4792832;29;92103;-69
2022/12/06 13:15:49;;;;;;;10.80;5.10;;;6.80;85.40;;;;;;4789234;29;93448;-69
2022/12/06 13:18:37;;;;;;;10.75;5.53;;;6.80;85.70;;;;;;4784692;29;92491;-69
2022/12/06 13:21:24;;;;;;;10.88;5.25;;;6.90;85.60;;;;;;4797358;29;91928;-70
2022/12/06 13:23:54;;;;;;;10.93;5.70;;;6.80;86.00;;;;;;4794722;29;92314;-69
2022/12/06 13:26:33;;;;;;;10.10;4.57;;;6.70;86.00;;;;;;4793893;29;92666;-69
2022/12/06 13:29:06;;;;;;;9.73;4.65;;;6.70;86.20;;;;;;4798780;29;92066;-70
2022/12/06 13:31:37;;;;;;;9.93;4.85;;;6.70;86.60;;;;;;4793838;29;91544;-69
2022/12/06 13:34:14;;;;;;;10.52;5.05;;;6.60;86.60;;;;;;4792988;29;90888;-69
2022/12/06 13:36:40;;;;;;;11.35;4.70;;;6.60;87.00;;;;;;4800196;29;91864;-69
2022/12/06 13:39:31;;;;;;;9.50;4.47;;;6.70;87.60;;;;;;4797595;29;92081;-69
2022/12/06 13:42:17;;;;;;;10.52;4.93;;;6.70;87.80;;;;;;4796264;29;92322;-68
2022/12/06 13:44:54;;;;;;;11.00;5.80;;;6.80;87.60;;;;;;4793294;29;92811;-69
2022/12/06 13:47:26;;;;;;;12.00;5.47;;;6.70;87.50;;;;;;4796938;29;92856;-69
2022/12/06 13:49:53;;;;;;;11.07;5.88;;;6.50;87.50;;;;;;4805028;29;92023;-69
2022/12/06 13:52:46;;;;;;;10.30;5.00;;;6.50;87.20;;;;;;4804456;29;92171;-68
2022/12/06 13:55:24;;;;;;;10.38;5.00;;;6.50;87.10;;;;;;4801347;29;91816;-69
2022/12/06 13:57:59;;;;;;;12.18;5.05;;;6.50;87.10;;;;;;4800470;29;92473;-68
2022/12/06 14:00:28;;;;;;;11.32;5.78;;;6.30;87.60;;;;;;4810959;29;92145;-69
2022/12/06 14:02:58;;;;;;;11.48;5.93;;;6.20;88.20;;;;;;4795364;29;91722;-70
2022/12/06 14:05:42;;;;;;;;;;;6.20;88.30;;;;;;4798560;29;92069;-69
2022/12/06 14:08:12;;;;;;;11.65;5.45;;;6.10;88.50;;;;;;4800409;29;94130;-69
2022/12/06 14:10:38;;;;;;;14.02;6.07;;;6.10;89.20;;;;;;4797051;29;92364;-69
2022/12/06 14:13:03;;;;;;;28.95;11.60;;;6.10;88.70;;;;;;4798588;29;91384;-70
2022/12/06 14:15:29;;;;;;;38.97;14.60;;;6.10;88.70;;;;;;4794267;29;91932;-69
2022/12/06 14:17:55;;;;;;;93.10;24.73;;;6.10;88.90;;;;;;4788040;29;94798;-68
2022/12/06 14:20:27;;;;;;;94.10;25.92;;;6.10;88.90;;;;;;4797767;29;93707;-69
2022/12/06 14:22:53;;;;;;;56.22;15.40;;;6.00;88.80;;;;;;4795856;29;91986;-69
2022/12/06 14:25:22;;;;;;;18.58;9.48;;;6.00;88.90;;;;;;4796935;29;92468;-69
2022/12/06 14:28:01;;;;;;;16.80;7.10;;;5.90;89.30;;;;;;4797541;29;93736;-69
2022/12/06 14:30:27;;;;;;;13.40;5.80;;;5.80;89.80;;;;;;4796621;29;92593;-69
2022/12/06 14:32:55;;;;;;;10.70;5.20;;;5.80;89.80;;;;;;4797252;29;93767;-68
2022/12/06 14:35:26;;;;;;;12.73;6.20;;;5.70;90.00;;;;;;4795108;29;92111;-69
2022/12/06 14:38:00;;;;;;;11.73;5.53;;;5.70;90.00;;;;;;4794312;29;92113;-68
2022/12/06 14:43:28;;;;;;;11.25;5.47;;;5.60;90.00;;;;;;4800434;29;91992;-69
2022/12/06 14:45:56;;;;;;;11.68;5.72;;;5.50;90.20;;;;;;4803987;29;91510;-68
2022/12/06 14:48:22;;;;;;;11.73;5.28;;;5.40;90.70;;;;;;4800131;29;91655;-70
2022/12/06 14:50:50;;;;;;;10.55;5.38;;;5.40;90.40;;;;;;4803302;29;91458;-69
2022/12/06 14:53:34;;;;;;;11.60;5.55;;;5.30;90.40;;;;;;4801071;29;92040;-71
2022/12/06 14:56:03;;;;;;;13.25;5.75;;;5.30;90.60;;;;;;4795317;29;91432;-71
2022/12/06 14:58:34;;;;;;;10.57;5.07;;;5.30;90.60;;;;;;4800005;29;93745;-70
2022/12/06 15:01:27;;;;;;;10.02;5.30;;;5.20;90.70;;;;;;4799937;29;92449;-68
2022/12/06 15:03:58;;;;;;;13.65;5.47;;;5.10;90.80;;;;;;4798629;29;91474;-69
2022/12/06 15:06:25;;;;;;;15.32;6.10;;;5.10;91.00;;;;;;4795242;29;92083;-68
2022/12/06 15:08:57;;;;;;;12.90;5.65;;;5.00;91.10;;;;;;4800962;29;92847;-68
2022/12/06 15:14:16;;;;;;;14.38;5.47;;;4.90;91.30;;;;;;4790426;29;92152;-70
2022/12/06 15:16:44;;;;;;;13.95;5.97;;;4.90;91.30;;;;;;4795165;29;91120;-69
2022/12/06 15:19:16;;;;;;;12.52;6.05;;;4.80;91.30;;;;;;4795862;29;93230;-69
2022/12/06 15:21:41;;;;;;;13.05;5.88;;;4.70;91.50;;;;;;4789004;29;91643;-69
2022/12/06 15:24:17;;;;;;;13.07;6.65;;;4.70;91.50;;;;;;4800272;29;92606;-69
2022/12/06 15:26:42;;;;;;;13.52;6.03;;;4.60;91.70;;;;;;4795045;29;91605;-69
2022/12/06 15:29:08;;;;;;;12.93;6.18;;;4.60;91.80;;;;;;4794565;29;93004;-69
2022/12/06 15:31:35;;;;;;;12.68;6.25;;;4.50;92.00;;;;;;4797932;29;92163;-68
2022/12/06 15:34:01;;;;;;;14.18;6.13;;;4.50;92.00;;;;;;4791759;29;92047;-69
2022/12/06 15:36:33;;;;;;;11.70;6.40;;;4.40;92.10;;;;;;4794767;29;91705;-68
2022/12/06 15:38:59;;;;;;;15.93;6.60;;;4.40;92.10;;;;;;4796623;29;92312;-68
2022/12/06 15:41:27;;;;;;;18.55;8.40;;;4.30;92.50;;;;;;4795515;29;92117;-68
2022/12/06 15:43:53;;;;;;;14.43;7.50;;;4.30;92.50;;;;;;4790048;29;91472;-69
2022/12/06 15:46:24;;;;;;;13.20;6.22;;;4.30;92.80;;;;;;4799382;29;91936;-68
2022/12/06 15:48:51;;;;;;;15.85;6.65;;;4.20;92.90;;;;;;4788043;29;93441;-69
2022/12/06 15:51:19;;;;;;;13.25;6.47;;;4.20;92.80;;;;;;4794550;29;93333;-69
2022/12/06 15:53:46;;;;;;;14.40;6.40;;;4.20;92.90;;;;;;4799398;29;92099;-69
2022/12/06 15:56:14;;;;;;;14.18;6.68;;;4.20;92.80;;;;;;4797138;29;91493;-68
2022/12/06 15:58:42;;;;;;;15.98;6.30;;;4.10;92.70;;;;;;4793897;29;92674;-69
2022/12/06 16:01:24;;;;;;;13.85;6.50;;;4.10;92.70;;;;;;4803202;29;92133;-68
2022/12/06 16:03:52;;;;;;;14.60;6.25;;;4.10;92.80;;;;;;4797567;29;92271;-69
2022/12/06 16:06:20;;;;;;;13.68;6.30;;;4.10;92.90;;;;;;4798766;29;91409;-69
2022/12/06 16:08:46;;;;;;;13.65;7.07;;;4.10;93.00;;;;;;4791076;29;93226;-69
2022/12/06 16:11:15;;;;;;;14.10;6.78;;;4.10;93.10;;;;;;4788522;29;92458;-69
2022/12/06 16:13:40;;;;;;;15.82;7.82;;;4.00;93.10;;;;;;4784647;29;92323;-69
2022/12/06 16:16:07;;;;;;;16.67;8.35;;;4.00;93.20;;;;;;4788145;29;91514;-69
2022/12/06 16:18:33;;;;;;;16.77;8.15;;;4.00;93.20;;;;;;4793859;29;92261;-69
2022/12/06 16:20:59;;;;;;;16.67;7.35;;;4.00;93.50;;;;;;4794946;29;91683;-69
2022/12/06 16:26:11;;;;;;;16.58;7.38;;;4.00;93.60;;;;;;4796756;29;91823;-69
2022/12/06 16:28:37;;;;;;;17.25;7.13;;;4.10;93.60;;;;;;4793853;29;92898;-70
2022/12/06 16:31:03;;;;;;;14.40;6.20;;;4.10;93.40;;;;;;4792984;29;91617;-70
2022/12/06 16:33:29;;;;;;;15.35;7.40;;;4.20;93.50;;;;;;4791547;29;92058;-69
2022/12/06 16:36:15;;;;;;;18.55;7.15;;;4.20;93.60;;;;;;4800560;29;93186;-69
2022/12/06 16:38:41;;;;;;;17.27;7.28;;;4.20;93.60;;;;;;4796879;29;92978;-69
2022/12/06 16:41:18;;;;;;;14.63;6.43;;;4.20;93.30;;;;;;4796443;29;94156;-69
2022/12/06 16:43:44;;;;;;;14.40;6.60;;;4.20;93.20;;;;;;4801185;29;91485;-70
2022/12/06 16:46:30;;;;;;;14.90;7.22;;;4.10;93.50;;;;;;4791518;29;92191;-70
2022/12/06 16:49:04;;;;;;;17.38;7.07;;;4.10;93.60;;;;;;4790170;29;92453;-69
2022/12/06 16:51:32;;;;;;;17.20;7.80;;;4.10;93.60;;;;;;4797888;29;92181;-69
2022/12/06 16:53:59;;;;;;;17.30;7.60;;;4.00;93.70;;;;;;4793629;29;91845;-69
2022/12/06 16:56:25;;;;;;;17.17;7.40;;;4.00;93.90;;;;;;4791479;29;91503;-69
2022/12/06 16:58:51;;;;;;;16.45;6.32;;;3.90;93.70;;;;;;4799726;29;92201;-69
2022/12/06 17:01:20;;;;;;;15.52;6.70;;;3.90;93.80;;;;;;4793198;29;91644;-69
2022/12/06 17:03:53;;;;;;;15.82;6.78;;;3.80;94.00;;;;;;4791963;29;92999;-70
2022/12/06 17:06:18;;;;;;;25.33;10.52;;;3.70;94.30;;;;;;4796105;29;92497;-69
2022/12/06 17:08:44;;;;;;;20.90;7.78;;;3.60;94.60;;;;;;4792931;29;92401;-69
2022/12/06 17:14:11;;;;;;;42.67;17.10;;;3.50;95.00;;;;;;4795742;29;93536;-69
2022/12/06 17:16:39;;;;;;;39.63;15.38;;;3.50;95.50;;;;;;4793928;29;91566;-70
2022/12/06 17:19:08;;;;;;;38.55;15.23;;;3.40;95.90;;;;;;4789438;29;92304;-69
2022/12/06 17:21:34;;;;;;;32.83;14.10;;;3.40;96.20;;;;;;4794306;29;92161;-69
2022/12/06 17:24:00;;;;;;;28.10;12.38;;;3.30;96.40;;;;;;4792701;29;91403;-69
2022/12/06 17:26:33;;;;;;;32.03;13.13;;;3.30;96.50;;;;;;4793488;29;91962;-69
2022/12/06 17:29:00;;;;;;;28.42;11.30;;;3.30;96.50;;;;;;4793996;29;93839;-69
2022/12/06 17:31:26;;;;;;;28.02;11.23;;;3.30;96.50;;;;;;4787977;29;92799;-70
2022/12/06 17:33:52;;;;;;;28.10;11.98;;;3.20;96.70;;;;;;4789991;29;91352;-69
2022/12/06 17:36:18;;;;;;;24.08;11.55;;;3.20;96.60;;;;;;4795654;29;91931;-69